createdAt,value
2019-02-24T00:01:28.816Z,71.60
2019-02-24T00:03:58.440Z,71.90
2019-02-24T00:06:28.152Z,71.90
2019-02-24T00:08:57.748Z,67.40
2019-02-24T00:11:27.347Z,69.60
2019-02-24T00:13:56.977Z,72.00
2019-02-24T00:16:26.572Z,74.80
2019-02-24T00:18:56.197Z,75.50
2019-02-24T00:21:25.794Z,75.80
2019-02-24T00:23:55.424Z,75.30
2019-02-24T00:26:25.092Z,73.50
2019-02-24T00:28:54.700Z,74.20
2019-02-24T00:31:24.327Z,73.20
2019-02-24T00:33:53.919Z,70.80
2019-02-24T00:36:23.550Z,72.10
2019-02-24T00:38:53.222Z,72.20
2019-02-24T00:41:22.854Z,70.30
2019-02-24T00:43:52.446Z,70.70
2019-02-24T00:46:22.065Z,72.10
2019-02-24T00:48:51.740Z,74.60
2019-02-24T00:51:21.368Z,76.20
2019-02-24T00:53:50.969Z,74.60
2019-02-24T00:56:20.595Z,74.90
2019-02-24T00:58:50.191Z,72.30
2019-02-24T01:01:19.896Z,73.40
2019-02-24T01:03:49.493Z,73.80
2019-02-24T01:06:19.900Z,73.00
2019-02-24T01:08:49.521Z,74.70
2019-02-24T01:11:19.145Z,75.10
2019-02-24T01:13:48.772Z,76.00
2019-02-24T01:16:18.401Z,76.00
2019-02-24T01:18:47.998Z,72.70
2019-02-24T01:21:17.598Z,69.90
2019-02-24T01:23:47.233Z,71.10
2019-02-24T01:26:16.985Z,69.80
2019-02-24T01:28:46.582Z,68.90
2019-02-24T01:31:16.200Z,69.60
2019-02-24T01:33:45.822Z,71.50
2019-02-24T01:36:15.419Z,71.80
2019-02-24T01:38:45.051Z,69.60
2019-02-24T01:41:14.655Z,69.50
2019-02-24T01:43:44.288Z,71.50
2019-02-24T01:46:13.880Z,73.00
2019-02-24T01:48:43.508Z,72.80
2019-02-24T01:51:13.105Z,73.10
2019-02-24T01:53:42.723Z,73.10
2019-02-24T01:56:12.351Z,73.60
2019-02-24T01:58:41.953Z,74.60
2019-02-24T02:01:11.638Z,73.40
2019-02-24T02:03:41.280Z,72.30
2019-02-24T02:06:10.882Z,72.80
2019-02-24T02:08:40.481Z,74.30
2019-02-24T02:11:10.167Z,73.90
2019-02-24T02:13:39.792Z,72.10
2019-02-24T02:16:09.416Z,74.00
2019-02-24T02:18:39.024Z,74.60
2019-02-24T02:21:08.675Z,76.00
2019-02-24T02:23:38.272Z,77.40
2019-02-24T02:26:07.870Z,77.00
2019-02-24T02:28:43.770Z,76.10
2019-02-24T02:31:08.824Z,74.80
2019-02-24T02:33:38.455Z,75.40
2019-02-24T02:36:08.320Z,75.20
2019-02-24T02:38:37.919Z,75.80
2019-02-24T02:41:07.544Z,75.80
2019-02-24T02:43:37.170Z,76.10
2019-02-24T02:46:06.783Z,74.60
2019-02-24T02:48:36.775Z,75.40
2019-02-24T02:51:06.401Z,77.30
2019-02-24T02:53:36.019Z,78.20
2019-02-24T02:56:05.645Z,77.60
2019-02-24T02:58:35.275Z,78.70
2019-02-24T03:01:05.008Z,78.20
2019-02-24T03:03:34.632Z,78.00
2019-02-24T03:06:11.854Z,76.70
2019-02-24T03:08:48.552Z,75.90
2019-02-24T03:11:18.588Z,76.30
2019-02-24T03:13:48.358Z,77.00
2019-02-24T03:16:19.659Z,77.80
2019-02-24T03:18:49.297Z,75.90
2019-02-24T03:21:18.973Z,71.60
2019-02-24T03:23:48.585Z,73.20
2019-02-24T03:26:18.257Z,75.50
2019-02-24T03:28:47.884Z,75.30
2019-02-24T03:31:17.481Z,78.20
2019-02-24T03:33:47.119Z,77.60
2019-02-24T03:36:16.707Z,77.90
2019-02-24T03:38:46.344Z,78.80
2019-02-24T03:41:15.949Z,78.50
2019-02-24T03:43:45.628Z,77.80
2019-02-24T03:46:15.254Z,75.60
2019-02-24T03:48:44.883Z,75.40
2019-02-24T03:51:14.504Z,74.20
2019-02-24T03:53:44.273Z,74.10
2019-02-24T03:56:13.903Z,76.00
2019-02-24T03:58:43.640Z,73.10
2019-02-24T04:01:13.335Z,73.70
2019-02-24T04:03:43.000Z,74.90
2019-02-24T04:06:12.630Z,77.20
2019-02-24T04:08:42.262Z,77.30
2019-02-24T04:11:12.037Z,77.90
2019-02-24T04:13:41.639Z,78.10
2019-02-24T04:16:11.239Z,77.60
2019-02-24T04:18:40.867Z,75.90
2019-02-24T04:21:10.492Z,75.70
2019-02-24T04:23:40.090Z,76.00
2019-02-24T04:26:09.720Z,76.70
2019-02-24T04:28:39.349Z,77.40
2019-02-24T04:31:08.947Z,77.50
2019-02-24T04:33:38.598Z,77.40
2019-02-24T04:36:08.169Z,78.60
2019-02-24T04:38:38.136Z,78.90
2019-02-24T04:41:07.738Z,80.00
2019-02-24T04:43:37.362Z,80.80
2019-02-24T04:46:06.988Z,81.00
2019-02-24T04:48:36.621Z,80.20
2019-02-24T04:51:06.231Z,80.30
2019-02-24T04:53:35.858Z,81.40
2019-02-24T04:56:05.480Z,82.00
2019-02-24T04:58:35.080Z,81.70
2019-02-24T05:01:04.777Z,80.70
2019-02-24T05:03:34.401Z,80.00
2019-02-24T05:06:04.091Z,79.80
2019-02-24T05:08:33.713Z,79.70
2019-02-24T05:11:03.312Z,79.60
2019-02-24T05:13:32.951Z,78.90
2019-02-24T05:16:02.567Z,77.80
2019-02-24T05:18:32.189Z,79.40
2019-02-24T05:21:01.818Z,79.70
2019-02-24T05:23:31.412Z,79.70
2019-02-24T05:26:01.326Z,80.00
2019-02-24T05:28:30.921Z,80.00
2019-02-24T05:31:00.519Z,79.60
2019-02-24T05:33:30.142Z,79.00
2019-02-24T05:35:59.765Z,79.30
2019-02-24T05:38:29.463Z,79.90
2019-02-24T05:40:59.092Z,79.60
2019-02-24T05:43:28.688Z,80.00
2019-02-24T05:45:58.370Z,79.40
2019-02-24T05:48:27.967Z,79.10
2019-02-24T05:50:57.592Z,79.80
2019-02-24T05:53:27.196Z,79.90
2019-02-24T05:55:56.808Z,80.50
2019-02-24T05:58:26.410Z,80.10
2019-02-24T06:00:56.048Z,79.60
2019-02-24T06:03:25.651Z,80.20
2019-02-24T06:05:55.244Z,81.10
2019-02-24T06:08:24.862Z,81.50
2019-02-24T06:10:54.506Z,82.00
2019-02-24T06:13:24.107Z,82.30
2019-02-24T06:15:53.714Z,82.40
2019-02-24T06:18:23.345Z,82.80
2019-02-24T06:20:52.944Z,81.70
2019-02-24T06:23:22.591Z,80.10
2019-02-24T06:25:52.194Z,78.70
2019-02-24T06:28:21.791Z,77.50
2019-02-24T06:30:51.424Z,76.20
2019-02-24T06:33:21.024Z,74.10
2019-02-24T06:35:50.655Z,74.80
2019-02-24T06:38:20.261Z,73.40
2019-02-24T06:40:49.945Z,73.30
2019-02-24T06:43:19.571Z,73.70
2019-02-24T06:45:49.175Z,74.60
2019-02-24T06:48:18.814Z,73.70
2019-02-24T06:50:50.053Z,74.60
2019-02-24T06:53:19.901Z,74.40
2019-02-24T06:55:49.530Z,74.00
2019-02-24T06:58:19.132Z,76.10
2019-02-24T07:00:48.726Z,74.70
2019-02-24T07:03:18.350Z,74.60
2019-02-24T07:05:47.957Z,74.40
2019-02-24T07:08:17.587Z,73.90
2019-02-24T07:10:47.253Z,73.70
2019-02-24T07:13:16.885Z,71.00
2019-02-24T07:15:46.484Z,70.70
2019-02-24T07:18:16.108Z,72.10
2019-02-24T07:20:45.705Z,68.00
2019-02-24T07:23:15.333Z,65.60
2019-02-24T07:25:44.934Z,64.40
2019-02-24T07:28:14.556Z,63.50
2019-02-24T07:30:44.158Z,62.30
2019-02-24T07:33:13.792Z,61.70
2019-02-24T07:35:43.390Z,61.20
2019-02-24T07:38:12.986Z,59.80
2019-02-24T07:40:42.608Z,59.30
2019-02-24T07:43:12.228Z,59.00
2019-02-24T07:45:41.829Z,58.80
2019-02-24T07:48:11.465Z,58.00
2019-02-24T07:50:41.083Z,57.40
2019-02-24T07:53:10.713Z,56.20
2019-02-24T07:55:40.338Z,55.20
2019-02-24T07:58:09.938Z,54.80
2019-02-24T08:00:39.573Z,52.80
2019-02-24T08:03:09.179Z,53.10
2019-02-24T08:05:38.778Z,57.30
2019-02-24T08:08:16.177Z,58.40
2019-02-24T08:10:39.753Z,57.10
2019-02-24T08:13:09.383Z,56.10
2019-02-24T08:15:38.977Z,56.40
2019-02-24T08:18:08.592Z,54.70
2019-02-24T08:20:38.250Z,54.30
2019-02-24T08:23:07.914Z,53.80
2019-02-24T08:25:37.521Z,54.20
2019-02-24T08:28:07.103Z,52.90
2019-02-24T08:30:41.510Z,52.70
2019-02-24T08:33:08.053Z,52.70
2019-02-24T08:35:37.640Z,52.50
2019-02-24T08:38:07.339Z,51.60
2019-02-24T08:40:36.962Z,51.50
2019-02-24T08:43:06.652Z,50.20
2019-02-24T08:45:36.241Z,48.40
2019-02-24T08:48:05.898Z,48.60
2019-02-24T08:50:36.096Z,48.40
2019-02-24T08:53:05.786Z,47.50
2019-02-24T08:55:35.383Z,47.50
2019-02-24T08:58:05.003Z,47.60
2019-02-24T09:00:34.598Z,47.70
2019-02-24T09:03:04.214Z,47.70
2019-02-24T09:05:33.803Z,47.90
2019-02-24T09:08:03.420Z,46.70
2019-02-24T09:10:33.015Z,45.20
2019-02-24T09:13:02.636Z,45.30
2019-02-24T09:15:32.220Z,44.90
2019-02-24T09:18:02.410Z,43.60
2019-02-24T09:20:32.166Z,42.50
2019-02-24T09:23:02.036Z,42.90
2019-02-24T09:25:31.693Z,42.20
2019-02-24T09:28:01.322Z,42.30
2019-02-24T09:30:30.934Z,42.70
2019-02-24T09:33:00.547Z,42.00
2019-02-24T09:35:30.160Z,42.20
2019-02-24T09:37:59.755Z,42.00
2019-02-24T09:40:29.440Z,41.80
2019-02-24T09:42:59.143Z,41.60
2019-02-24T09:45:28.754Z,40.40
2019-02-24T09:47:58.336Z,41.40
2019-02-24T09:50:27.964Z,41.60
2019-02-24T09:52:57.552Z,40.60
2019-02-24T09:55:27.144Z,40.80
2019-02-24T09:57:56.769Z,39.40
2019-02-24T10:00:27.021Z,38.80
2019-02-24T10:02:57.599Z,38.70
2019-02-24T10:05:28.202Z,37.20
2019-02-24T10:07:57.787Z,36.70
2019-02-24T10:10:27.410Z,36.30
2019-02-24T10:12:57.028Z,37.10
2019-02-24T10:15:26.635Z,36.00
2019-02-24T10:17:56.255Z,36.60
2019-02-24T10:20:25.913Z,35.50
2019-02-24T10:22:55.538Z,35.00
2019-02-24T10:25:25.126Z,36.10
2019-02-24T10:27:54.757Z,35.50
2019-02-24T10:30:24.420Z,36.00
2019-02-24T10:32:54.084Z,36.00
2019-02-24T10:35:23.703Z,36.60
2019-02-24T10:37:53.297Z,35.30
2019-02-24T10:40:23.389Z,35.60
2019-02-24T10:42:52.985Z,35.60
2019-02-24T10:45:22.679Z,34.80
2019-02-24T10:47:52.935Z,35.20
2019-02-24T10:50:22.539Z,35.20
2019-02-24T10:52:52.149Z,36.20
2019-02-24T10:55:21.737Z,36.40
2019-02-24T10:57:51.362Z,37.30
2019-02-24T11:00:22.802Z,36.40
2019-02-24T11:02:52.425Z,35.90
2019-02-24T11:05:24.024Z,35.20
2019-02-24T11:07:53.642Z,37.20
2019-02-24T11:10:23.303Z,36.60
2019-02-24T11:12:52.920Z,36.20
2019-02-24T11:15:22.530Z,36.10
2019-02-24T11:17:52.121Z,34.80
2019-02-24T11:20:21.742Z,34.70
2019-02-24T11:22:51.428Z,35.50
2019-02-24T11:25:21.022Z,34.80
2019-02-24T11:27:50.643Z,35.20
2019-02-24T11:30:20.471Z,34.80
2019-02-24T11:32:50.096Z,33.60
2019-02-24T11:35:19.754Z,34.10
2019-02-24T11:37:49.641Z,33.50
2019-02-24T11:40:19.938Z,33.70
2019-02-24T11:42:49.551Z,32.10
2019-02-24T11:45:19.207Z,31.50
2019-02-24T11:47:48.817Z,32.30
2019-02-24T11:50:18.516Z,31.80
2019-02-24T11:52:48.110Z,32.80
2019-02-24T11:55:17.749Z,32.60
2019-02-24T11:57:47.325Z,32.10
2019-02-24T12:00:17.286Z,31.10
2019-02-24T12:02:46.940Z,31.40
2019-02-24T12:05:16.553Z,31.50
2019-02-24T12:07:46.148Z,31.80
2019-02-24T12:10:15.777Z,31.70
2019-02-24T12:12:45.366Z,31.10
2019-02-24T12:15:16.330Z,31.60
2019-02-24T12:17:46.054Z,31.60
2019-02-24T12:20:16.061Z,31.60
2019-02-24T12:22:45.652Z,32.00
2019-02-24T12:25:15.808Z,31.50
2019-02-24T12:27:45.499Z,31.90
2019-02-24T12:30:17.226Z,32.30
2019-02-24T12:32:48.338Z,31.20
2019-02-24T12:35:17.920Z,30.80
2019-02-24T12:37:47.516Z,31.30
2019-02-24T12:40:17.596Z,30.50
2019-02-24T12:42:47.219Z,30.40
2019-02-24T12:45:16.808Z,30.00
2019-02-24T12:47:46.426Z,30.00
2019-02-24T12:50:18.517Z,29.70
2019-02-24T12:52:48.403Z,29.00
2019-02-24T12:55:18.027Z,29.20
2019-02-24T12:57:47.943Z,29.40
2019-02-24T13:00:28.871Z,29.30
2019-02-24T13:02:58.521Z,28.70
2019-02-24T13:05:28.145Z,29.40
2019-02-24T13:07:57.760Z,29.70
2019-02-24T13:10:27.349Z,29.20
2019-02-24T13:12:57.036Z,29.70
2019-02-24T13:15:26.703Z,28.50
2019-02-24T13:17:56.310Z,29.30
2019-02-24T13:20:25.993Z,29.10
2019-02-24T13:22:55.577Z,29.80
2019-02-24T13:25:25.280Z,29.60
2019-02-24T13:27:54.870Z,31.40
2019-02-24T13:30:24.604Z,30.80
2019-02-24T13:32:54.237Z,30.30
2019-02-24T13:35:23.818Z,30.00
2019-02-24T13:37:53.409Z,29.90
2019-02-24T13:40:23.944Z,30.00
2019-02-24T13:42:53.535Z,29.60
2019-02-24T13:45:23.869Z,29.90
2019-02-24T13:47:53.486Z,30.00
2019-02-24T13:50:23.212Z,29.40
2019-02-24T13:52:52.834Z,29.20
2019-02-24T13:55:22.587Z,28.10
2019-02-24T13:57:52.183Z,28.80
2019-02-24T14:00:22.920Z,30.00
2019-02-24T14:02:52.508Z,29.10
2019-02-24T14:05:22.232Z,29.00
2019-02-24T14:07:51.851Z,29.90
2019-02-24T14:10:21.583Z,28.50
2019-02-24T14:12:51.199Z,28.20
2019-02-24T14:15:21.422Z,28.30
2019-02-24T14:17:51.042Z,28.70
2019-02-24T14:20:20.907Z,29.20
2019-02-24T14:22:50.528Z,29.40
2019-02-24T14:25:20.185Z,29.70
2019-02-24T14:27:49.807Z,29.60
2019-02-24T14:30:20.732Z,30.10
2019-02-24T14:32:50.321Z,30.20
2019-02-24T14:35:24.759Z,31.70
2019-02-24T14:37:54.489Z,33.00
2019-02-24T14:40:24.113Z,33.70
2019-02-24T14:42:53.733Z,34.30
2019-02-24T14:45:24.964Z,34.90
2019-02-24T14:47:54.632Z,34.30
2019-02-24T14:50:24.245Z,34.60
2019-02-24T14:52:53.840Z,33.80
2019-02-24T14:55:23.522Z,34.30
2019-02-24T14:57:53.151Z,34.10
2019-02-24T15:00:24.826Z,34.60
2019-02-24T15:02:54.486Z,35.60
2019-02-24T15:05:24.138Z,34.70
2019-02-24T15:07:54.048Z,34.80
2019-02-24T15:10:25.270Z,35.00
2019-02-24T15:12:54.896Z,34.80
2019-02-24T15:15:33.735Z,34.30
2019-02-24T15:18:03.422Z,35.10
2019-02-24T15:20:33.084Z,36.00
2019-02-24T15:23:03.593Z,34.40
2019-02-24T15:25:33.176Z,34.10
2019-02-24T15:28:02.801Z,35.10
2019-02-24T15:30:38.894Z,34.30
2019-02-24T15:33:08.837Z,34.70
2019-02-24T15:35:38.782Z,34.70
2019-02-24T15:38:08.543Z,34.70
2019-02-24T15:40:38.131Z,34.40
2019-02-24T15:43:07.918Z,35.10
2019-02-24T15:45:37.484Z,34.90
2019-02-24T15:48:07.186Z,35.50
2019-02-24T15:50:36.779Z,34.60
2019-02-24T15:53:06.467Z,35.00
2019-02-24T15:55:36.056Z,35.20
2019-02-24T15:58:05.939Z,34.80
2019-02-24T16:00:36.464Z,34.70
2019-02-24T16:03:06.143Z,34.60
2019-02-24T16:05:35.759Z,35.10
2019-02-24T16:08:05.350Z,34.70
2019-02-24T16:10:35.302Z,34.60
2019-02-24T16:13:04.981Z,34.50
2019-02-24T16:15:34.577Z,36.20
2019-02-24T16:18:04.263Z,37.50
2019-02-24T16:20:37.202Z,36.70
2019-02-24T16:23:07.769Z,37.20
2019-02-24T16:25:37.390Z,38.00
2019-02-24T16:28:07.371Z,40.10
2019-02-24T16:30:37.056Z,40.30
2019-02-24T16:33:10.687Z,38.60
2019-02-24T16:35:37.992Z,37.80
2019-02-24T16:38:07.682Z,38.30
2019-02-24T16:40:37.278Z,38.60
2019-02-24T16:43:07.034Z,39.60
2019-02-24T16:45:36.666Z,40.60
2019-02-24T16:48:06.394Z,40.20
2019-02-24T16:50:36.075Z,39.10
2019-02-24T16:53:05.745Z,39.10
2019-02-24T16:55:35.434Z,39.10
2019-02-24T16:58:05.101Z,40.00
2019-02-24T17:00:34.979Z,40.30
2019-02-24T17:03:04.844Z,39.50
2019-02-24T17:05:34.752Z,39.80
2019-02-24T17:08:04.373Z,38.90
2019-02-24T17:10:34.032Z,38.80
2019-02-24T17:13:03.629Z,39.80
2019-02-24T17:15:33.235Z,40.70
2019-02-24T17:18:02.868Z,41.70
2019-02-24T17:20:32.524Z,41.60
2019-02-24T17:23:02.118Z,41.40
2019-02-24T17:25:31.735Z,42.00
2019-02-24T17:28:01.360Z,42.20
2019-02-24T17:30:31.050Z,42.40
2019-02-24T17:33:00.665Z,41.60
2019-02-24T17:35:30.628Z,40.80
2019-02-24T17:38:00.247Z,40.10
2019-02-24T17:40:29.882Z,40.60
2019-02-24T17:42:59.478Z,40.70
2019-02-24T17:45:29.396Z,41.70
2019-02-24T17:47:59.334Z,41.70
2019-02-24T17:50:28.924Z,41.50
2019-02-24T17:52:58.546Z,41.70
2019-02-24T17:55:28.229Z,41.80
2019-02-24T17:57:57.919Z,41.00
2019-02-24T18:00:30.915Z,41.20
2019-02-24T18:03:00.598Z,40.50
2019-02-24T18:05:30.191Z,41.20
2019-02-24T18:07:59.822Z,41.40
2019-02-24T18:10:29.486Z,40.80
2019-02-24T18:13:00.113Z,40.00
2019-02-24T18:15:29.801Z,40.00
2019-02-24T18:17:59.388Z,40.50
2019-02-24T18:20:29.072Z,40.70
2019-02-24T18:22:58.664Z,44.60
2019-02-24T18:25:28.279Z,46.10
2019-02-24T18:27:57.875Z,46.20
2019-02-24T18:30:30.009Z,42.30
2019-02-24T18:32:59.596Z,41.60
2019-02-24T18:35:29.230Z,40.90
2019-02-24T18:37:58.900Z,41.60
2019-02-24T18:40:28.571Z,42.80
2019-02-24T18:43:00.488Z,42.30
2019-02-24T18:45:29.535Z,41.70
2019-02-24T18:47:59.131Z,41.60
2019-02-24T18:50:28.759Z,41.90
2019-02-24T18:52:58.397Z,42.80
2019-02-24T18:55:28.025Z,42.80
2019-02-24T18:57:58.331Z,42.70
2019-02-24T19:00:27.989Z,42.50
2019-02-24T19:02:57.588Z,42.90
2019-02-24T19:05:27.207Z,43.10
2019-02-24T19:07:56.806Z,43.60
2019-02-24T19:10:26.567Z,44.20
2019-02-24T19:12:56.165Z,44.10
2019-02-24T19:15:26.397Z,43.60
2019-02-24T19:17:56.023Z,44.40
2019-02-24T19:20:26.055Z,48.10
2019-02-24T19:22:55.680Z,46.10
2019-02-24T19:25:25.485Z,46.80
2019-02-24T19:27:55.081Z,45.10
2019-02-24T19:30:24.699Z,43.40
2019-02-24T19:32:54.294Z,44.10
2019-02-24T19:35:23.919Z,45.60
2019-02-24T19:37:53.515Z,45.30
2019-02-24T19:40:23.547Z,44.70
2019-02-24T19:42:53.242Z,44.60
2019-02-24T19:45:26.754Z,43.90
2019-02-24T19:47:56.384Z,44.10
2019-02-24T19:50:25.977Z,43.50
2019-02-24T19:52:55.599Z,43.40
2019-02-24T19:55:25.193Z,44.30
2019-02-24T19:57:54.821Z,43.80
2019-02-24T20:00:27.780Z,44.30
2019-02-24T20:02:58.175Z,44.70
2019-02-24T20:05:27.880Z,44.40
2019-02-24T20:07:57.468Z,44.10
2019-02-24T20:10:29.667Z,44.10
2019-02-24T20:12:59.352Z,44.50
2019-02-24T20:15:29.844Z,43.40
2019-02-24T20:17:59.471Z,42.70
2019-02-24T20:20:29.085Z,43.70
2019-02-24T20:22:59.245Z,44.20
2019-02-24T20:25:28.868Z,44.00
2019-02-24T20:27:58.463Z,44.00
2019-02-24T20:30:34.332Z,43.30
2019-02-24T20:33:03.928Z,43.30
2019-02-24T20:35:33.549Z,43.90
2019-02-24T20:38:03.144Z,43.80
2019-02-24T20:40:32.772Z,43.40
2019-02-24T20:43:02.434Z,43.10
2019-02-24T20:45:32.042Z,43.00
2019-02-24T20:48:01.746Z,43.10
2019-02-24T20:50:35.921Z,43.10
2019-02-24T20:53:05.871Z,43.10
2019-02-24T20:55:35.492Z,43.20
2019-02-24T20:58:05.258Z,43.50
2019-02-24T21:00:45.388Z,43.70
2019-02-24T21:03:15.023Z,43.80
2019-02-24T21:05:44.759Z,43.20
2019-02-24T21:08:14.354Z,42.40
2019-02-24T21:10:44.048Z,43.10
2019-02-24T21:13:13.670Z,43.50
2019-02-24T21:15:43.360Z,43.10
2019-02-24T21:18:12.980Z,42.90
2019-02-24T21:20:43.189Z,43.30
2019-02-24T21:23:12.815Z,43.60
2019-02-24T21:25:42.420Z,44.60
2019-02-24T21:28:12.102Z,44.20
2019-02-24T21:30:41.770Z,45.00
2019-02-24T21:33:11.389Z,46.60
2019-02-24T21:35:41.008Z,48.80
2019-02-24T21:38:10.673Z,52.20
2019-02-24T21:40:40.304Z,47.00
2019-02-24T21:43:09.895Z,45.90
2019-02-24T21:45:41.563Z,47.90
2019-02-24T21:48:10.997Z,48.90
2019-02-24T21:50:41.230Z,51.70
2019-02-24T21:53:10.837Z,52.00
2019-02-24T21:55:40.460Z,52.60
2019-02-24T21:58:11.821Z,51.70
2019-02-24T22:00:41.675Z,49.00
2019-02-24T22:03:11.270Z,49.30
2019-02-24T22:05:40.900Z,47.40
2019-02-24T22:08:10.496Z,45.80
2019-02-24T22:10:40.112Z,45.90
2019-02-24T22:13:09.775Z,46.40
2019-02-24T22:15:39.389Z,45.80
2019-02-24T22:18:08.974Z,45.60
2019-02-24T22:20:38.592Z,46.60
2019-02-24T22:23:08.261Z,47.50
2019-02-24T22:25:37.888Z,48.70
2019-02-24T22:28:07.486Z,48.00
2019-02-24T22:30:37.177Z,47.40
2019-02-24T22:33:06.834Z,47.50
2019-02-24T22:35:36.456Z,47.10
2019-02-24T22:38:06.087Z,46.90
2019-02-24T22:40:35.676Z,48.30
2019-02-24T22:43:05.271Z,48.00
2019-02-24T22:45:34.880Z,47.80
2019-02-24T22:48:04.473Z,47.50
2019-02-24T22:50:34.099Z,47.80
2019-02-24T22:53:03.787Z,47.70
2019-02-24T22:55:33.473Z,47.00
2019-02-24T22:58:03.070Z,46.80
2019-02-24T23:00:51.666Z,46.90
2019-02-24T23:03:30.481Z,47.30
2019-02-24T23:06:00.313Z,47.10
2019-02-24T23:08:30.122Z,47.30
2019-02-24T23:10:59.740Z,47.50
2019-02-24T23:13:29.355Z,47.50
2019-02-24T23:15:58.947Z,48.20
2019-02-24T23:18:29.233Z,48.40
2019-02-24T23:20:58.828Z,48.80
2019-02-24T23:23:28.447Z,49.30
2019-02-24T23:25:58.065Z,50.10
2019-02-24T23:28:27.699Z,50.00
2019-02-24T23:30:57.355Z,49.20
2019-02-24T23:33:26.947Z,48.70
2019-02-24T23:35:57.497Z,50.00
2019-02-24T23:38:27.304Z,49.60
2019-02-24T23:40:56.930Z,50.60
2019-02-24T23:43:26.558Z,50.10
2019-02-24T23:45:56.161Z,50.40
2019-02-24T23:48:25.784Z,49.30
2019-02-24T23:50:55.715Z,48.20
2019-02-24T23:53:25.311Z,47.70
2019-02-24T23:55:54.925Z,49.00
2019-02-24T23:58:24.541Z,49.40
